Time;durP1;ratioP1;P1;durP2;ratioP2;P2;SDS_P1;SDS_P2;PMS_P1;PMS_P2;Temp;Humidity;BMP_temperature;BMP_pressure;BME280_temperature;BME280_humidity;BME280_pressure;Samples;Min_cycle;Max_cycle;Signal;HPM_P1;HPM_P2
2022/01/17 00:00:32;;;;;;;26.43;6.63;;;29.90;99.90;;;;;;4995123;28;20258;-77
2022/01/17 00:03:00;;;;;;;12.67;7.00;;;30.00;99.90;;;;;;4996251;28;20302;-77
2022/01/17 00:05:28;;;;;;;18.57;6.70;;;29.50;99.90;;;;;;4996131;28;20194;-77
2022/01/17 00:07:56;;;;;;;19.00;6.73;;;29.80;99.90;;;;;;4979408;28;20214;-76
2022/01/17 00:10:24;;;;;;;20.67;6.67;;;30.00;99.90;;;;;;4997285;28;20206;-77
2022/01/17 00:12:54;;;;;;;17.83;7.17;;;30.30;99.90;;;;;;4997128;28;20181;-76
2022/01/17 00:15:43;;;;;;;15.63;6.93;;;30.30;99.90;;;;;;4980187;28;20670;-76
2022/01/17 00:18:26;;;;;;;19.53;7.20;;;30.20;99.90;;;;;;4996910;28;20663;-77
2022/01/17 00:20:56;;;;;;;17.60;6.83;;;30.30;99.90;;;;;;4997108;28;20198;-77
2022/01/17 00:23:27;;;;;;;22.53;7.27;;;30.40;99.90;;;;;;4980688;28;20195;-77
2022/01/17 00:25:54;;;;;;;14.43;6.85;;;30.70;99.90;;;;;;4996859;28;20187;-77
2022/01/17 00:28:23;;;;;;;12.93;6.57;;;30.80;99.90;;;;;;4980872;28;20190;-76
2022/01/17 00:30:50;;;;;;;17.10;6.50;;;30.50;99.90;;;;;;4997669;28;20178;-76
2022/01/17 00:33:18;;;;;;;13.27;5.93;;;30.40;99.90;;;;;;4997997;28;20186;-77
2022/01/17 00:35:45;;;;;;;19.60;6.73;;;30.90;99.90;;;;;;4997578;28;20214;-76
2022/01/17 00:38:15;;;;;;;12.23;5.63;;;31.10;99.90;;;;;;4997609;28;20270;-77
2022/01/17 00:40:43;;;;;;;15.73;6.57;;;31.40;99.90;;;;;;4980178;28;20210;-76
2022/01/17 00:43:12;;;;;;;15.50;6.17;;;31.40;99.90;;;;;;4997043;28;20226;-75
2022/01/17 00:45:41;;;;;;;16.33;6.10;;;31.40;99.90;;;;;;4997912;28;20189;-77
2022/01/17 00:48:12;;;;;;;12.20;5.63;;;31.80;99.90;;;;;;4997900;28;20598;-76
2022/01/17 00:50:40;;;;;;;15.50;6.05;;;31.50;99.90;;;;;;4998201;28;20302;-76
2022/01/17 00:53:09;;;;;;;21.42;6.30;;;31.70;99.90;;;;;;4981016;28;20674;-77
2022/01/17 00:55:38;;;;;;;15.95;5.85;;;32.10;99.90;;;;;;4986366;28;20183;-75
2022/01/17 00:58:10;;;;;;;12.77;5.82;;;32.40;99.90;;;;;;5001715;28;20183;-74
2022/01/17 01:00:40;;;;;;;11.40;5.57;;;32.80;99.90;;;;;;4962416;28;20191;-75
2022/01/17 01:03:11;;;;;;;18.45;6.45;;;32.50;99.90;;;;;;4997141;28;20205;-76
2022/01/17 01:05:39;;;;;;;16.40;5.60;;;31.90;99.90;;;;;;4996944;28;20671;-74
2022/01/17 01:08:06;;;;;;;22.63;6.13;;;31.90;99.90;;;;;;4997240;28;20182;-73
2022/01/17 01:10:34;;;;;;;14.40;6.18;;;31.70;99.90;;;;;;4997132;28;20655;-74
2022/01/17 01:13:01;;;;;;;16.60;5.35;;;31.30;99.90;;;;;;4997400;28;20177;-73
2022/01/17 01:15:44;;;;;;;22.33;6.03;;;31.00;99.90;;;;;;4996946;28;20206;-73
2022/01/17 01:18:36;;;;;;;18.85;5.68;;;31.20;99.90;;;;;;4979638;28;20190;-73
2022/01/17 01:21:42;;;;;;;16.37;5.10;;;31.60;99.90;;;;;;4996435;28;20321;-72
2022/01/17 01:29:32;;;;;;;26.53;6.97;;;31.20;99.90;;;;;;4995615;28;20229;-72
2022/01/17 01:32:06;;;;;;;17.73;5.80;;;31.40;99.90;;;;;;4995478;28;20183;-71
2022/01/17 01:34:45;;;;;;;15.77;6.47;;;31.00;99.90;;;;;;4995320;28;20182;-71
2022/01/17 01:37:13;;;;;;;21.70;6.63;;;30.70;99.90;;;;;;4979169;28;20610;-72
2022/01/17 01:39:40;;;;;;;13.83;5.37;;;30.80;99.90;;;;;;4995219;28;20189;-71
2022/01/17 01:42:17;;;;;;;10.40;5.03;;;31.00;99.90;;;;;;4995035;28;20222;-71
2022/01/17 01:44:48;;;;;;;17.50;5.87;;;30.70;99.90;;;;;;4994994;28;20294;-71
2022/01/17 01:47:15;;;;;;;16.90;5.30;;;31.20;99.90;;;;;;4995231;28;20533;-71
2022/01/17 01:49:43;;;;;;;13.50;5.07;;;31.50;99.90;;;;;;4995218;28;20261;-71
2022/01/17 01:52:10;;;;;;;26.40;5.80;;;31.40;99.90;;;;;;4994807;28;20285;-73
2022/01/17 01:54:37;;;;;;;11.55;5.22;;;31.40;99.90;;;;;;4993964;28;20187;-73
2022/01/17 01:57:06;;;;;;;8.03;4.53;;;32.00;99.90;;;;;;4994952;28;20409;-74
2022/01/17 01:59:34;;;;;;;13.35;4.88;;;32.00;99.90;;;;;;4977044;28;20229;-73
2022/01/17 02:02:05;;;;;;;9.20;4.00;;;32.80;99.90;;;;;;4978704;28;20614;-72
2022/01/17 02:04:33;;;;;;;9.40;4.55;;;33.00;99.90;;;;;;4994048;28;20182;-74
2022/01/17 02:07:00;;;;;;;12.43;5.15;;;33.30;99.90;;;;;;4990586;28;20207;-76
2022/01/17 02:09:27;;;;;;;22.23;5.03;;;33.30;99.90;;;;;;4996627;28;20703;-74
2022/01/17 02:11:55;;;;;;;18.85;4.18;;;33.50;99.90;;;;;;4996741;28;20178;-79
2022/01/17 02:14:22;;;;;;;10.50;4.20;;;33.50;99.90;;;;;;4994234;28;20261;-75
2022/01/17 02:16:51;;;;;;;13.55;4.47;;;33.50;99.90;;;;;;4994663;28;20179;-75
2022/01/17 02:19:24;;;;;;;12.25;4.00;;;33.20;99.90;;;;;;4994536;28;20178;-72
2022/01/17 02:21:53;;;;;;;13.73;4.78;;;32.50;99.90;;;;;;4977951;28;20226;-78
2022/01/17 02:24:22;;;;;;;12.52;4.35;;;32.70;99.90;;;;;;4994568;28;20266;-72
2022/01/17 02:26:53;;;;;;;13.50;4.13;;;33.30;99.90;;;;;;4995564;28;20185;-73
2022/01/17 02:29:21;;;;;;;11.38;3.95;;;34.00;99.90;;;;;;4996100;28;20190;-70
2022/01/17 02:31:50;;;;;;;8.15;3.97;;;34.20;99.90;;;;;;4979633;28;20648;-71
2022/01/17 02:34:17;;;;;;;10.55;3.95;;;34.20;99.90;;;;;;4996331;28;20171;-73
2022/01/17 02:36:45;;;;;;;12.38;4.47;;;34.00;99.90;;;;;;4978567;28;20185;-73
2022/01/17 02:39:14;;;;;;;8.30;3.92;;;34.30;99.90;;;;;;4996135;28;20185;-75
2022/01/17 02:41:49;;;;;;;14.88;4.15;;;34.30;99.90;;;;;;4996442;28;20225;-76
2022/01/17 02:44:17;;;;;;;15.15;4.28;;;34.70;99.90;;;;;;4979033;28;20522;-76
2022/01/17 02:46:44;;;;;;;8.25;3.58;;;34.30;99.90;;;;;;4996677;28;20202;-78
2022/01/17 02:49:12;;;;;;;13.48;4.07;;;34.00;99.90;;;;;;4996511;28;20190;-72
2022/01/17 02:51:40;;;;;;;10.45;4.32;;;34.00;99.90;;;;;;4996183;28;20277;-76
2022/01/17 02:54:07;;;;;;;10.75;4.20;;;34.30;99.90;;;;;;4979078;28;20242;-76
2022/01/17 02:56:34;;;;;;;9.38;3.75;;;35.00;99.90;;;;;;4995742;28;20229;-74
2022/01/17 02:59:02;;;;;;;11.00;3.85;;;35.20;99.90;;;;;;4996487;28;20213;-73
2022/01/17 03:01:30;;;;;;;6.50;3.63;;;35.30;99.90;;;;;;4996522;28;20206;-74
2022/01/17 03:04:00;;;;;;;10.13;3.80;;;35.20;99.90;;;;;;4996913;28;20174;-75
2022/01/17 03:06:28;;;;;;;10.48;3.45;;;35.00;99.90;;;;;;4996751;28;20182;-73
2022/01/17 03:08:56;;;;;;;8.55;3.58;;;35.20;99.90;;;;;;4996394;28;20222;-76
2022/01/17 03:11:26;;;;;;;13.15;3.55;;;35.40;99.90;;;;;;4995873;28;20229;-75
2022/01/17 03:13:54;;;;;;;19.50;4.38;;;35.60;99.90;;;;;;4996948;28;20179;-73
2022/01/17 03:16:29;;;;;;;9.95;4.03;;;35.20;99.90;;;;;;4996867;28;20179;-77
2022/01/17 03:18:58;;;;;;;11.90;3.40;;;35.40;99.90;;;;;;4998857;28;20280;-77
2022/01/17 03:21:27;;;;;;;8.63;3.88;;;35.60;99.90;;;;;;4964293;28;20658;-76
2022/01/17 03:23:55;;;;;;;12.02;3.78;;;35.50;99.90;;;;;;4997876;28;20186;-76
2022/01/17 03:26:22;;;;;;;7.63;3.53;;;35.00;99.90;;;;;;4999432;28;20229;-78
2022/01/17 03:28:49;;;;;;;12.77;4.03;;;35.10;99.90;;;;;;5000859;28;20178;-76
2022/01/17 03:31:17;;;;;;;7.65;3.70;;;35.40;99.90;;;;;;5001725;28;20179;-78
2022/01/17 03:33:44;;;;;;;7.45;3.58;;;35.90;99.90;;;;;;5001641;28;20265;-78
2022/01/17 03:36:12;;;;;;;9.68;3.53;;;35.90;99.90;;;;;;5001522;28;20217;-76
2022/01/17 03:38:40;;;;;;;10.27;4.00;;;35.50;99.90;;;;;;4983363;28;20655;-75
2022/01/17 03:41:14;;;;;;;6.25;3.67;;;34.90;99.90;;;;;;5001426;28;20286;-77
2022/01/17 03:43:41;;;;;;;7.82;3.45;;;34.90;99.90;;;;;;5000886;28;20202;-71
2022/01/17 03:46:09;;;;;;;13.05;3.95;;;34.60;99.90;;;;;;5000928;28;20175;-74
2022/01/17 03:48:36;;;;;;;8.40;3.58;;;34.80;99.90;;;;;;5001047;28;20214;-72
2022/01/17 03:51:04;;;;;;;8.52;3.10;;;35.00;99.90;;;;;;5000267;28;20286;-76
2022/01/17 03:53:32;;;;;;;9.23;3.45;;;35.20;99.90;;;;;;4999976;28;20214;-74
2022/01/17 03:56:00;;;;;;;14.43;3.67;;;35.10;99.90;;;;;;4999261;28;20778;-76
2022/01/17 03:58:27;;;;;;;8.75;3.88;;;35.20;99.90;;;;;;4999704;28;20175;-78
2022/01/17 04:00:58;;;;;;;6.60;4.07;;;35.30;99.90;;;;;;4999454;28;20213;-79
2022/01/17 04:03:26;;;;;;;6.53;3.35;;;35.30;99.90;;;;;;4999193;28;20237;-75
2022/01/17 04:05:54;;;;;;;9.75;3.58;;;35.10;99.90;;;;;;4999086;28;20174;-76
2022/01/17 04:08:22;;;;;;;6.60;3.55;;;35.30;99.90;;;;;;4981648;28;20179;-75
2022/01/17 04:10:49;;;;;;;8.43;3.20;;;35.40;99.90;;;;;;4999220;28;20174;-77
2022/01/17 04:13:17;;;;;;;4.82;3.10;;;35.40;99.90;;;;;;4999068;28;20189;-75
2022/01/17 04:15:44;;;;;;;11.10;3.40;;;36.00;99.90;;;;;;4981164;28;20273;-76
2022/01/17 04:18:12;;;;;;;10.65;3.40;;;35.90;99.90;;;;;;4999533;28;20189;-77
2022/01/17 04:20:41;;;;;;;9.68;3.60;;;35.80;99.90;;;;;;5000327;28;20198;-77
2022/01/17 04:23:21;;;;;;;10.40;3.70;;;35.60;99.90;;;;;;4999778;28;20205;-77
2022/01/17 04:25:51;;;;;;;7.65;3.80;;;35.40;99.90;;;;;;4998835;28;20236;-71
2022/01/17 04:28:19;;;;;;;6.82;3.50;;;35.20;99.90;;;;;;5001456;28;20176;-70
2022/01/17 04:30:46;;;;;;;9.82;3.90;;;35.20;99.90;;;;;;5002408;28;20193;-72
2022/01/17 04:33:14;;;;;;;8.07;3.47;;;35.00;99.90;;;;;;5002230;28;20661;-78
2022/01/17 04:35:43;;;;;;;8.25;3.55;;;34.90;99.90;;;;;;4999534;28;20182;-73
2022/01/17 04:38:17;;;;;;;11.50;3.65;;;34.90;99.90;;;;;;4981017;28;20575;-72
2022/01/17 04:40:49;;;;;;;5.07;3.25;;;34.80;99.90;;;;;;4997914;28;20214;-77
2022/01/17 04:43:43;;;;;;;10.75;3.35;;;34.90;99.90;;;;;;4998877;28;20178;-76
2022/01/17 04:46:09;;;;;;;8.57;3.25;;;35.00;99.90;;;;;;4997974;28;20648;-76
2022/01/17 04:48:38;;;;;;;8.32;4.07;;;35.10;99.90;;;;;;4998508;28;20188;-78
2022/01/17 04:51:08;;;;;;;14.82;4.88;;;34.80;99.90;;;;;;4999076;28;20265;-77
2022/01/17 04:53:36;;;;;;;10.57;4.50;;;34.60;99.90;;;;;;4998600;28;20186;-77
2022/01/17 04:56:03;;;;;;;16.35;4.45;;;34.50;99.90;;;;;;4981299;28;20648;-75
2022/01/17 04:58:31;;;;;;;9.73;5.50;;;33.90;99.90;;;;;;4998509;28;20182;-77
2022/01/17 05:00:58;;;;;;;13.43;6.05;;;33.40;99.90;;;;;;4998147;28;20198;-77
2022/01/17 05:03:27;;;;;;;13.00;6.05;;;32.90;99.90;;;;;;4998435;28;20185;-77
2022/01/17 05:05:55;;;;;;;11.43;5.80;;;32.80;99.90;;;;;;4998136;28;20183;-77
2022/01/17 05:08:22;;;;;;;18.05;6.80;;;32.60;99.90;;;;;;4980484;28;20682;-75
2022/01/17 05:10:53;;;;;;;15.18;6.80;;;32.40;99.90;;;;;;4998723;28;20225;-76
2022/01/17 05:13:31;;;;;;;19.63;7.10;;;32.40;99.90;;;;;;4998330;28;20273;-77
2022/01/17 05:16:12;;;;;;;19.75;7.22;;;32.20;99.90;;;;;;4980376;28;20237;-76
2022/01/17 05:21:08;;;;;;;16.70;7.65;;;31.90;99.90;;;;;;4997969;28;20282;-75
2022/01/17 05:23:36;;;;;;;17.83;7.43;;;31.90;99.90;;;;;;4997623;28;20186;-78
2022/01/17 05:26:03;;;;;;;13.68;7.75;;;31.90;99.90;;;;;;4998593;28;20175;-79
2022/01/17 05:28:31;;;;;;;14.93;7.60;;;32.00;99.90;;;;;;4998399;28;20198;-76
2022/01/17 05:30:58;;;;;;;17.23;8.02;;;31.90;99.90;;;;;;4998376;28;20179;-77
2022/01/17 05:33:25;;;;;;;18.17;8.43;;;31.90;99.90;;;;;;4999114;28;20171;-78
2022/01/17 05:35:53;;;;;;;25.20;8.47;;;31.90;99.90;;;;;;4998750;28;20210;-80
2022/01/17 05:38:20;;;;;;;20.80;9.13;;;32.00;99.90;;;;;;4998388;28;20233;-79
2022/01/17 05:40:47;;;;;;;15.65;8.82;;;32.00;99.90;;;;;;4997993;28;20175;-76
2022/01/17 05:43:15;;;;;;;16.85;8.25;;;32.30;99.90;;;;;;4981000;28;20198;-78
2022/01/17 05:45:42;;;;;;;15.98;9.05;;;32.20;99.90;;;;;;4980382;28;20175;-73
2022/01/17 05:48:09;;;;;;;20.52;9.65;;;32.10;99.90;;;;;;4996878;28;20185;-76
2022/01/17 05:50:36;;;;;;;17.88;9.18;;;31.90;99.90;;;;;;4997250;28;20185;-76
2022/01/17 05:53:04;;;;;;;17.77;8.80;;;31.90;99.90;;;;;;4997635;28;20294;-75
2022/01/17 05:55:31;;;;;;;20.60;9.95;;;32.00;99.90;;;;;;4996821;28;20173;-71
2022/01/17 05:57:59;;;;;;;24.08;9.20;;;32.00;99.90;;;;;;4997589;28;20233;-78
2022/01/17 06:00:27;;;;;;;18.67;9.43;;;32.30;99.90;;;;;;4980061;28;20175;-79
2022/01/17 06:02:54;;;;;;;20.60;9.55;;;32.60;99.90;;;;;;4997423;28;20714;-76
2022/01/17 06:05:21;;;;;;;21.15;9.20;;;32.60;99.90;;;;;;4997133;28;20205;-74
2022/01/17 06:07:49;;;;;;;22.92;9.77;;;32.40;99.90;;;;;;4997019;28;20175;-76
2022/01/17 06:10:16;;;;;;;19.98;9.40;;;32.30;99.90;;;;;;4980005;28;20211;-78
2022/01/17 06:12:45;;;;;;;22.05;10.77;;;32.40;99.90;;;;;;4997052;28;20174;-78
2022/01/17 06:15:13;;;;;;;20.63;9.73;;;32.60;99.90;;;;;;4997008;28;20178;-75
2022/01/17 06:17:40;;;;;;;22.08;9.30;;;32.60;99.90;;;;;;4997353;28;20175;-73
2022/01/17 06:20:08;;;;;;;18.40;10.07;;;32.30;99.90;;;;;;4996906;28;20185;-73
2022/01/17 06:22:35;;;;;;;19.65;9.30;;;31.70;99.90;;;;;;4996762;28;20215;-73
2022/01/17 06:25:04;;;;;;;15.65;9.35;;;31.40;99.90;;;;;;4995822;28;20178;-72
2022/01/17 06:27:31;;;;;;;19.07;9.40;;;31.40;99.90;;;;;;4996008;28;20174;-75
2022/01/17 06:29:59;;;;;;;15.90;9.93;;;31.20;99.90;;;;;;4996455;28;20171;-73
2022/01/17 06:32:28;;;;;;;19.95;10.10;;;31.20;99.90;;;;;;4995927;28;20175;-73
2022/01/17 06:34:56;;;;;;;16.40;10.30;;;31.40;99.90;;;;;;4995624;28;20635;-76
2022/01/17 06:37:24;;;;;;;19.20;11.00;;;31.20;99.90;;;;;;4995693;28;20269;-74
2022/01/17 06:39:53;;;;;;;16.67;10.17;;;31.50;99.90;;;;;;4995602;28;20237;-77
2022/01/17 06:42:22;;;;;;;18.77;10.45;;;31.40;99.90;;;;;;4995552;28;20215;-74
2022/01/17 06:44:50;;;;;;;19.43;11.47;;;31.30;99.90;;;;;;4997155;28;20632;-79
2022/01/17 06:47:21;;;;;;;20.57;11.60;;;31.20;99.90;;;;;;4997073;28;20186;-79
2022/01/17 06:49:49;;;;;;;17.47;10.03;;;31.10;99.90;;;;;;4997712;28;20179;-78
2022/01/17 06:52:16;;;;;;;23.50;10.82;;;30.90;99.90;;;;;;4998022;28;20261;-79
2022/01/17 06:54:43;;;;;;;15.20;10.20;;;30.60;99.90;;;;;;4997718;28;20174;-79
2022/01/17 06:57:10;;;;;;;17.57;11.00;;;30.40;99.90;;;;;;4998063;28;20171;-78
2022/01/17 06:59:38;;;;;;;18.25;10.45;;;30.30;99.90;;;;;;4997622;28;20297;-79
2022/01/17 07:02:05;;;;;;;19.40;10.20;;;30.30;99.90;;;;;;4997658;28;20293;-79
2022/01/17 07:04:32;;;;;;;19.43;11.23;;;30.20;99.90;;;;;;4996989;28;20257;-79
2022/01/17 07:07:01;;;;;;;17.10;9.77;;;30.20;99.90;;;;;;4999010;28;20174;-78
2022/01/17 07:09:30;;;;;;;18.07;10.43;;;30.10;99.90;;;;;;4997801;28;20171;-79
2022/01/17 07:12:00;;;;;;;17.70;10.93;;;30.00;99.90;;;;;;4996453;28;20174;-78
2022/01/17 07:14:28;;;;;;;25.60;10.97;;;30.00;99.90;;;;;;4996655;28;20262;-79
2022/01/17 07:16:57;;;;;;;21.50;10.93;;;29.90;99.90;;;;;;4978752;28;20183;-79
2022/01/17 07:19:25;;;;;;;16.27;9.83;;;29.90;99.90;;;;;;4997307;28;20179;-79
2022/01/17 07:21:53;;;;;;;22.27;9.87;;;29.80;99.90;;;;;;4997052;28;20225;-78
2022/01/17 07:24:20;;;;;;;21.73;10.40;;;29.70;99.90;;;;;;4996346;28;20257;-76
2022/01/17 07:26:47;;;;;;;20.23;9.83;;;29.40;99.90;;;;;;4995399;28;20616;-75
2022/01/17 07:29:15;;;;;;;17.90;10.37;;;29.30;99.90;;;;;;4995759;28;20178;-75
2022/01/17 07:31:42;;;;;;;17.03;9.53;;;29.30;99.90;;;;;;4995498;28;20635;-76
2022/01/17 07:34:11;;;;;;;16.03;8.80;;;29.30;99.90;;;;;;4995580;28;20179;-71
2022/01/17 07:36:38;;;;;;;24.27;10.87;;;29.30;99.90;;;;;;4994731;28;20198;-79
2022/01/17 07:39:06;;;;;;;18.97;9.17;;;29.00;99.90;;;;;;4995756;28;20190;-79
2022/01/17 07:41:33;;;;;;;16.70;9.00;;;29.00;99.90;;;;;;4995580;28;20297;-73
2022/01/17 07:44:02;;;;;;;18.47;8.50;;;28.90;99.90;;;;;;4995218;28;20190;-77
2022/01/17 07:51:42;;;;;;;17.63;8.83;;;28.80;99.90;;;;;;4996097;28;20185;-75
2022/01/17 07:54:11;;;;;;;16.90;8.47;;;28.80;99.90;;;;;;4996473;28;20189;-76
2022/01/17 07:56:40;;;;;;;21.00;8.63;;;28.70;99.90;;;;;;4998074;28;20183;-71
2022/01/17 07:59:09;;;;;;;18.50;8.70;;;28.70;99.90;;;;;;4998897;28;20188;-78
2022/01/17 08:01:40;;;;;;;18.10;8.40;;;28.70;99.90;;;;;;4980777;28;20306;-76
2022/01/17 08:04:09;;;;;;;18.77;8.70;;;28.70;99.90;;;;;;4996727;28;20175;-79
2022/01/17 08:06:39;;;;;;;18.07;8.27;;;28.60;99.90;;;;;;4980021;28;20195;-76
2022/01/17 08:09:25;;;;;;;13.07;8.10;;;28.60;99.90;;;;;;4998055;28;20183;-78
2022/01/17 08:11:53;;;;;;;11.93;7.33;;;28.70;99.90;;;;;;4998983;28;20194;-75
2022/01/17 08:14:24;;;;;;;18.47;7.73;;;28.60;99.90;;;;;;5001372;28;20671;-78
2022/01/17 08:16:53;;;;;;;16.73;7.87;;;28.60;99.90;;;;;;5000978;28;20175;-79
2022/01/17 08:19:25;;;;;;;19.90;7.97;;;28.40;99.90;;;;;;5001416;28;20744;-76
2022/01/17 08:21:52;;;;;;;19.07;7.70;;;28.40;99.90;;;;;;4983268;28;20583;-78
2022/01/17 08:24:21;;;;;;;18.70;7.40;;;28.30;99.90;;;;;;5001247;28;20636;-77
2022/01/17 08:26:50;;;;;;;17.10;6.77;;;28.20;99.90;;;;;;5000690;28;20189;-76
2022/01/17 08:29:18;;;;;;;15.90;7.20;;;28.20;99.90;;;;;;5000202;28;20647;-79
2022/01/17 08:31:47;;;;;;;14.67;7.67;;;28.10;99.90;;;;;;5000676;28;20269;-76
2022/01/17 08:34:17;;;;;;;16.17;7.43;;;28.10;99.90;;;;;;5000120;28;20190;-77
2022/01/17 08:36:47;;;;;;;16.50;6.97;;;28.00;99.90;;;;;;4999081;28;20234;-80
2022/01/17 08:39:15;;;;;;;14.17;6.60;;;28.00;99.90;;;;;;4999360;28;20205;-80
2022/01/17 08:41:43;;;;;;;14.33;6.93;;;28.00;99.90;;;;;;4998126;28;20223;-80
2022/01/17 08:44:12;;;;;;;17.87;7.07;;;28.00;99.90;;;;;;4997406;28;20206;-78
2022/01/17 08:46:40;;;;;;;17.87;6.47;;;28.00;99.90;;;;;;4980961;28;20183;-79
2022/01/17 08:49:08;;;;;;;14.63;6.60;;;27.90;99.90;;;;;;4997872;28;20175;-80
2022/01/17 08:51:36;;;;;;;18.20;6.73;;;28.00;99.90;;;;;;4998491;28;20273;-78
2022/01/17 08:54:04;;;;;;;15.97;6.90;;;27.90;99.90;;;;;;4997831;28;20178;-80
2022/01/17 08:56:36;;;;;;;13.90;6.57;;;27.90;99.90;;;;;;4980736;28;20520;-79
2022/01/17 08:59:05;;;;;;;15.10;6.43;;;27.90;99.90;;;;;;4982880;28;20184;-79
2022/01/17 09:01:32;;;;;;;17.00;7.40;;;27.90;99.90;;;;;;4967584;28;20230;-74
2022/01/17 09:04:00;;;;;;;14.03;5.90;;;27.80;99.90;;;;;;5000536;28;20508;-81
2022/01/17 09:06:27;;;;;;;15.90;6.43;;;27.80;99.90;;;;;;5000162;28;20178;-77
2022/01/17 09:08:55;;;;;;;9.37;6.00;;;27.80;99.90;;;;;;4998440;28;20225;-78
2022/01/17 09:11:22;;;;;;;17.73;6.17;;;27.70;99.90;;;;;;4996980;28;20274;-73
2022/01/17 09:13:50;;;;;;;14.30;6.73;;;27.70;99.90;;;;;;4996909;28;20191;-80
2022/01/17 09:16:18;;;;;;;14.00;6.13;;;27.60;99.90;;;;;;4997441;28;20178;-80
2022/01/17 09:18:46;;;;;;;16.63;5.97;;;27.60;99.90;;;;;;4997177;28;20197;-76
2022/01/17 09:21:14;;;;;;;12.67;5.93;;;27.50;99.90;;;;;;4980122;28;20206;-79
2022/01/17 09:23:42;;;;;;;11.07;5.03;;;27.50;99.90;;;;;;4996185;28;20178;-74
2022/01/17 09:26:09;;;;;;;13.60;6.30;;;27.60;99.90;;;;;;4997278;28;20190;-76
2022/01/17 09:28:38;;;;;;;15.93;6.90;;;27.60;99.90;;;;;;4998358;28;20663;-76
2022/01/17 09:31:07;;;;;;;11.10;5.90;;;27.60;99.90;;;;;;4979996;28;20353;-73
2022/01/17 09:33:35;;;;;;;13.13;5.67;;;27.60;99.90;;;;;;4980385;28;20179;-76
2022/01/17 09:36:03;;;;;;;14.07;6.10;;;27.60;99.90;;;;;;4979412;28;20190;-79
2022/01/17 09:38:30;;;;;;;15.17;5.87;;;27.50;99.90;;;;;;4997072;28;20608;-77
2022/01/17 09:40:57;;;;;;;16.47;6.27;;;27.50;99.90;;;;;;4997149;28;20185;-77
2022/01/17 09:43:25;;;;;;;13.77;5.67;;;27.50;99.90;;;;;;4997132;28;20193;-77
2022/01/17 09:45:52;;;;;;;12.23;5.60;;;27.40;99.90;;;;;;4997129;28;20202;-78
2022/01/17 09:48:23;;;;;;;11.80;6.20;;;27.40;99.90;;;;;;4996001;28;20248;-77
2022/01/17 09:51:05;;;;;;;11.03;5.90;;;27.40;99.90;;;;;;4996643;28;20187;-78
2022/01/17 09:53:39;;;;;;;14.87;6.30;;;27.40;99.90;;;;;;4996950;28;20214;-76
2022/01/17 09:56:10;;;;;;;16.13;6.50;;;27.40;99.90;;;;;;4996443;28;20179;-75
2022/01/17 09:58:40;;;;;;;11.00;6.17;;;27.30;99.90;;;;;;4996425;28;20186;-74
2022/01/17 10:01:10;;;;;;;14.83;6.60;;;27.30;99.90;;;;;;4996134;28;20215;-79
2022/01/17 10:03:38;;;;;;;15.30;6.30;;;27.20;99.90;;;;;;4996582;28;20182;-79
2022/01/17 10:06:06;;;;;;;17.30;6.87;;;27.20;99.90;;;;;;4978780;28;20191;-75
2022/01/17 10:08:33;;;;;;;13.33;6.73;;;27.20;99.90;;;;;;4996350;28;20652;-79
2022/01/17 10:11:02;;;;;;;15.70;7.13;;;27.20;99.90;;;;;;4995507;28;20636;-81
2022/01/17 10:13:29;;;;;;;14.43;7.27;;;27.20;99.90;;;;;;4996693;28;20186;-73
2022/01/17 10:16:03;;;;;;;14.30;6.67;;;27.10;99.90;;;;;;4996695;28;20175;-72
2022/01/17 10:18:39;;;;;;;9.70;6.40;;;27.10;99.90;;;;;;4997684;28;20672;-80
2022/01/17 10:21:26;;;;;;;17.70;6.63;;;27.00;99.90;;;;;;4996632;28;20190;-79
2022/01/17 10:35:18;;;;;;;13.20;7.00;;;26.80;99.90;;;;;;4997136;28;20197;-80
2022/01/17 10:38:07;;;;;;;12.00;7.07;;;26.80;99.90;;;;;;4996617;28;20727;-80
2022/01/17 10:40:58;;;;;;;13.47;7.20;;;26.80;99.90;;;;;;4997015;28;20746;-78
2022/01/17 10:43:42;;;;;;;13.50;6.87;;;26.80;99.90;;;;;;4996299;28;20211;-79
2022/01/17 10:46:13;;;;;;;17.93;7.57;;;26.70;99.90;;;;;;4996887;28;20174;-76
2022/01/17 10:48:46;;;;;;;10.63;6.07;;;26.70;99.90;;;;;;4963049;28;20182;-80
2022/01/17 10:51:16;;;;;;;13.50;6.77;;;26.70;99.90;;;;;;4996085;28;20185;-79
2022/01/17 10:53:49;;;;;;;14.70;7.40;;;26.70;99.90;;;;;;4996243;28;20183;-76
2022/01/17 10:56:17;;;;;;;14.87;7.53;;;26.60;99.90;;;;;;4996262;28;20189;-74
2022/01/17 10:58:44;;;;;;;10.00;6.83;;;26.70;99.90;;;;;;4995973;28;20194;-78
2022/01/17 11:01:16;;;;;;;12.00;7.10;;;26.70;99.90;;;;;;4996244;28;20198;-79
2022/01/17 11:03:46;;;;;;;13.00;7.07;;;26.60;99.90;;;;;;4996364;28;20187;-78
2022/01/17 11:06:20;;;;;;;13.80;7.77;;;26.70;99.90;;;;;;4996807;28;20190;-76
2022/01/17 11:08:48;;;;;;;16.73;7.80;;;26.70;99.90;;;;;;4979122;28;20197;-77
2022/01/17 11:11:21;;;;;;;15.50;8.00;;;26.80;99.90;;;;;;4996439;28;20187;-77
2022/01/17 11:13:50;;;;;;;15.93;8.17;;;26.80;99.90;;;;;;4996280;28;20229;-74
2022/01/17 11:16:21;;;;;;;19.67;8.87;;;26.80;99.90;;;;;;4997179;28;20182;-78
2022/01/17 11:19:20;;;;;;;18.13;8.63;;;26.90;99.90;;;;;;4996667;28;20213;-78
2022/01/17 11:21:47;;;;;;;14.43;8.50;;;26.90;99.90;;;;;;4995593;28;20221;-77
2022/01/17 11:24:14;;;;;;;19.87;8.47;;;26.90;99.90;;;;;;4995903;28;20179;-76
2022/01/17 11:26:42;;;;;;;23.13;9.43;;;26.90;99.90;;;;;;4997310;28;20632;-77
2022/01/17 11:29:12;;;;;;;19.50;8.30;;;26.80;99.90;;;;;;4995539;28;20237;-76
2022/01/17 11:31:42;;;;;;;20.20;7.90;;;26.80;99.90;;;;;;4984853;28;20550;-77
2022/01/17 11:34:13;;;;;;;17.80;8.40;;;26.90;99.90;;;;;;4977662;28;20190;-77
2022/01/17 11:36:42;;;;;;;19.00;8.33;;;26.80;99.90;;;;;;4995331;28;20178;-75
2022/01/17 11:39:15;;;;;;;21.43;9.10;;;26.80;99.90;;;;;;4995523;28;20210;-78
2022/01/17 11:41:50;;;;;;;14.23;8.53;;;26.80;99.90;;;;;;4995242;28;20304;-74
2022/01/17 11:44:31;;;;;;;21.93;9.57;;;26.80;99.90;;;;;;4994768;28;20200;-75
2022/01/17 11:46:59;;;;;;;14.07;8.13;;;26.80;99.90;;;;;;4996286;28;20183;-72
2022/01/17 11:49:38;;;;;;;17.13;8.87;;;26.80;99.90;;;;;;4980727;28;20604;-72
2022/01/17 11:52:11;;;;;;;16.17;8.23;;;26.80;99.90;;;;;;4998862;28;20560;-76
2022/01/17 11:54:45;;;;;;;18.13;8.63;;;26.80;99.90;;;;;;4982222;28;20545;-75
2022/01/17 11:57:23;;;;;;;13.47;8.13;;;26.80;99.90;;;;;;4997711;28;20183;-74
2022/01/17 11:59:51;;;;;;;20.20;9.00;;;26.70;99.90;;;;;;4998422;28;20267;-75
2022/01/17 12:02:31;;;;;;;20.37;9.00;;;26.70;99.90;;;;;;4997543;28;20206;-75
2022/01/17 12:05:08;;;;;;;16.73;8.80;;;26.70;99.90;;;;;;4997534;28;20186;-75
2022/01/17 12:07:39;;;;;;;15.70;9.13;;;26.60;99.90;;;;;;4996972;28;20674;-76
2022/01/17 12:10:15;;;;;;;15.97;8.43;;;26.50;99.90;;;;;;4979270;28;20179;-76
2022/01/17 12:13:06;;;;;;;18.67;9.73;;;26.50;99.90;;;;;;4976592;28;20543;-77
2022/01/17 12:16:07;;;;;;;16.57;9.57;;;26.50;99.90;;;;;;4995177;28;20561;-75
2022/01/17 12:19:03;;;;;;;18.33;9.37;;;26.50;99.90;;;;;;4996779;28;20179;-74
2022/01/17 12:21:46;;;;;;;15.57;8.87;;;26.50;99.90;;;;;;4996633;28;20214;-78
2022/01/17 12:24:17;;;;;;;18.00;9.80;;;26.50;99.90;;;;;;4996916;28;20236;-74
2022/01/17 12:27:04;;;;;;;18.13;10.40;;;26.30;99.90;;;;;;4997149;28;20171;-76
2022/01/17 12:29:51;;;;;;;18.87;10.20;;;26.30;99.90;;;;;;4996251;28;20221;-74
2022/01/17 12:32:25;;;;;;;20.57;10.53;;;26.30;99.90;;;;;;4997397;28;20285;-77
2022/01/17 12:35:06;;;;;;;30.00;12.60;;;26.30;99.90;;;;;;4996241;28;20214;-77
2022/01/17 12:37:51;;;;;;;27.77;12.40;;;26.20;99.90;;;;;;4996483;28;20214;-78
2022/01/17 12:40:38;;;;;;;18.97;12.03;;;26.20;99.90;;;;;;4996202;28;20241;-74
2022/01/17 12:43:14;;;;;;;24.20;13.47;;;26.20;99.90;;;;;;4996074;28;20218;-76
2022/01/17 12:45:49;;;;;;;24.80;14.13;;;26.20;99.90;;;;;;4978879;28;20181;-75
2022/01/17 12:48:24;;;;;;;22.50;13.57;;;26.20;99.90;;;;;;4996096;28;20182;-76
2022/01/17 12:50:55;;;;;;;31.80;14.43;;;26.20;99.90;;;;;;4996019;28;20255;-76
2022/01/17 12:53:26;;;;;;;24.63;12.53;;;26.20;99.90;;;;;;4996475;28;20195;-76
2022/01/17 12:56:03;;;;;;;20.77;13.67;;;26.20;99.90;;;;;;4996217;28;20178;-76
2022/01/17 12:58:37;;;;;;;20.53;12.40;;;26.20;99.90;;;;;;4996048;28;20182;-76
2022/01/17 13:01:17;;;;;;;25.20;12.47;;;26.30;99.90;;;;;;4995795;28;20188;-75
2022/01/17 13:03:47;;;;;;;24.67;11.87;;;26.20;99.90;;;;;;4996003;28;20189;-76
2022/01/17 13:06:18;;;;;;;27.47;12.50;;;26.10;99.90;;;;;;4995785;28;20632;-74
2022/01/17 13:08:48;;;;;;;17.83;13.13;;;26.10;99.90;;;;;;4996022;28;20209;-75
2022/01/17 13:11:18;;;;;;;20.50;12.67;;;26.10;99.90;;;;;;4978290;28;20194;-72
2022/01/17 13:14:01;;;;;;;19.53;11.73;;;26.00;99.90;;;;;;4995758;28;20186;-74
2022/01/17 13:16:36;;;;;;;15.00;10.23;;;26.00;99.90;;;;;;4995580;28;20182;-77